메인 페이지
METAR-TAF:

METAR-TAF

공항 :

글로스터, 잉글랜드

위도: 51-54N, 경도: 002-10W, 고도: 29m

현재 날씨관측

예보는 11 시간 30분 전, 17:20시(UTC)에 발표되었습니다.
3kt
온도 20°C
습도 56%
기압 1018 hPa
시정 10km 이상
고도 4400ft 상공 구름 조금
고도 4800ft 상공 구름 조금, 타워링 적운.

METAR: EGBJ 111720Z 28003KT 9999 FEW044 FEW048TCU 20/11 Q1018

시각: 05:50 (04:50 UTC)

예보

예보는 14 시간 53분 전, 13:57시(UTC)에 발표되었습니다.
예보 대상 시간: 12일 15시부터 12일 19시까지 (UTC)
8kt
시정 10km 이상
고도 3000ft 상공 구름 조금
확률 30% :
일시적
12일 15시부터 12일 19시까지 (UTC)
시정: 8000m
고도 1400ft 상공 구름 많음
약한소나기,

TAF: EGBJ 121357Z 1215/1219 01008KT 9999 FEW030 PROB30 TEMPO 1215/1219 8000 -SHRA BKN014

4,000개 이상의 공항 관측 자료 및 예보 (METAR 및 TAF 보고).

지도상에서 검색 가능한 기상관측소가 노란 점과 빨간 점으로 표시되어 있습니다.

기상관측소 명을 보려면 표시 위로 마우스를 이동하세요.

날씨 관측과 예보를 보려면 클릭하세요.

지도 변경 : 확대하려면 엑스 표시가 있는 녹색 버튼, 축소하려면 빼기 표시가 있는 녹색 버튼, 다음 페이지의 지도를 보려면 녹색 화살표를 클릭하세요.


METAR-TAF: